sensor_id;sensor_type;location;lat;lon;timestamp;temperature;humidity
27506;DHT22;14939;43.596;1.320;2022-12-24T00:00:07;11.70;99.90
27506;DHT22;14939;43.596;1.320;2022-12-24T00:02:33;11.70;99.90
27506;DHT22;14939;43.596;1.320;2022-12-24T00:04:59;11.70;99.90
27506;DHT22;14939;43.596;1.320;2022-12-24T00:07:24;11.70;99.90
27506;DHT22;14939;43.596;1.320;2022-12-24T00:09:50;11.60;99.90
27506;DHT22;14939;43.596;1.320;2022-12-24T00:12:16;11.60;99.90
27506;DHT22;14939;43.596;1.320;2022-12-24T00:14:41;11.60;99.90
27506;DHT22;14939;43.596;1.320;2022-12-24T00:17:07;11.60;99.90
27506;DHT22;14939;43.596;1.320;2022-12-24T00:19:33;11.60;99.90
27506;DHT22;14939;43.596;1.320;2022-12-24T00:21:59;11.50;99.90
27506;DHT22;14939;43.596;1.320;2022-12-24T00:24:24;11.50;99.90
27506;DHT22;14939;43.596;1.320;2022-12-24T00:26:50;11.40;99.90
27506;DHT22;14939;43.596;1.320;2022-12-24T00:29:16;11.30;99.90
27506;DHT22;14939;43.596;1.320;2022-12-24T00:31:41;11.30;99.90
27506;DHT22;14939;43.596;1.320;2022-12-24T00:34:07;11.20;99.90
27506;DHT22;14939;43.596;1.320;2022-12-24T00:36:33;11.10;99.90
27506;DHT22;14939;43.596;1.320;2022-12-24T00:38:59;11.10;99.90
27506;DHT22;14939;43.596;1.320;2022-12-24T00:41:24;11.00;99.90
27506;DHT22;14939;43.596;1.320;2022-12-24T00:43:57;11.00;99.90
27506;DHT22;14939;43.596;1.320;2022-12-24T00:46:24;10.90;99.90
27506;DHT22;14939;43.596;1.320;2022-12-24T00:48:50;10.80;99.90
27506;DHT22;14939;43.596;1.320;2022-12-24T00:51:16;10.80;99.90
27506;DHT22;14939;43.596;1.320;2022-12-24T00:53:42;10.60;99.90
27506;DHT22;14939;43.596;1.320;2022-12-24T00:56:08;10.60;99.90
27506;DHT22;14939;43.596;1.320;2022-12-24T00:58:34;10.50;99.90
27506;DHT22;14939;43.596;1.320;2022-12-24T01:01:00;10.50;99.90
27506;DHT22;14939;43.596;1.320;2022-12-24T01:03:26;10.40;99.90
27506;DHT22;14939;43.596;1.320;2022-12-24T01:06:03;10.50;99.90
27506;DHT22;14939;43.596;1.320;2022-12-24T01:08:29;10.50;99.90
27506;DHT22;14939;43.596;1.320;2022-12-24T01:10:55;10.50;99.90
27506;DHT22;14939;43.596;1.320;2022-12-24T01:13:21;10.50;99.90
27506;DHT22;14939;43.596;1.320;2022-12-24T01:15:47;10.40;99.90
27506;DHT22;14939;43.596;1.320;2022-12-24T01:18:13;10.40;99.90
27506;DHT22;14939;43.596;1.320;2022-12-24T01:20:39;10.30;99.90
27506;DHT22;14939;43.596;1.320;2022-12-24T01:23:05;10.30;99.90
27506;DHT22;14939;43.596;1.320;2022-12-24T01:25:31;10.30;99.90
27506;DHT22;14939;43.596;1.320;2022-12-24T01:27:56;10.20;99.90
27506;DHT22;14939;43.596;1.320;2022-12-24T01:30:22;10.20;99.90
27506;DHT22;14939;43.596;1.320;2022-12-24T01:32:48;10.10;99.90
27506;DHT22;14939;43.596;1.320;2022-12-24T01:35:13;10.00;99.90
27506;DHT22;14939;43.596;1.320;2022-12-24T01:37:41;9.90;99.90
27506;DHT22;14939;43.596;1.320;2022-12-24T01:40:09;9.90;99.90
27506;DHT22;14939;43.596;1.320;2022-12-24T01:42:54;9.80;99.90
27506;DHT22;14939;43.596;1.320;2022-12-24T01:50:59;9.70;99.90
27506;DHT22;14939;43.596;1.320;2022-12-24T01:53:27;9.70;99.90
27506;DHT22;14939;43.596;1.320;2022-12-24T01:55:53;9.60;99.90
27506;DHT22;14939;43.596;1.320;2022-12-24T01:58:20;9.60;99.90
27506;DHT22;14939;43.596;1.320;2022-12-24T02:00:47;9.60;99.90
27506;DHT22;14939;43.596;1.320;2022-12-24T02:03:13;9.60;99.90
27506;DHT22;14939;43.596;1.320;2022-12-24T02:08:09;9.50;99.90
27506;DHT22;14939;43.596;1.320;2022-12-24T02:10:35;9.40;99.90
27506;DHT22;14939;43.596;1.320;2022-12-24T02:13:02;9.40;99.90
27506;DHT22;14939;43.596;1.320;2022-12-24T02:18:28;9.40;99.90
27506;DHT22;14939;43.596;1.320;2022-12-24T02:21:22;9.40;99.90
27506;DHT22;14939;43.596;1.320;2022-12-24T02:24:31;9.30;99.90
27506;DHT22;14939;43.596;1.320;2022-12-24T02:35:08;9.10;99.90
27506;DHT22;14939;43.596;1.320;2022-12-24T02:37:38;9.10;99.90
27506;DHT22;14939;43.596;1.320;2022-12-24T02:40:14;9.10;99.90
27506;DHT22;14939;43.596;1.320;2022-12-24T02:42:43;9.10;99.90
27506;DHT22;14939;43.596;1.320;2022-12-24T02:45:14;9.00;99.90
27506;DHT22;14939;43.596;1.320;2022-12-24T02:47:41;9.00;99.90
27506;DHT22;14939;43.596;1.320;2022-12-24T02:50:10;8.90;99.90
27506;DHT22;14939;43.596;1.320;2022-12-24T02:52:42;8.90;99.90
27506;DHT22;14939;43.596;1.320;2022-12-24T03:00:24;8.80;99.90
27506;DHT22;14939;43.596;1.320;2022-12-24T03:03:33;8.70;99.90
27506;DHT22;14939;43.596;1.320;2022-12-24T03:06:31;8.70;99.90
27506;DHT22;14939;43.596;1.320;2022-12-24T03:09:07;8.70;99.90
27506;DHT22;14939;43.596;1.320;2022-12-24T03:11:37;8.70;99.90
27506;DHT22;14939;43.596;1.320;2022-12-24T03:14:04;8.60;99.90
27506;DHT22;14939;43.596;1.320;2022-12-24T03:16:30;8.50;99.90
27506;DHT22;14939;43.596;1.320;2022-12-24T03:18:57;8.60;99.90
27506;DHT22;14939;43.596;1.320;2022-12-24T03:21:31;8.60;99.90
27506;DHT22;14939;43.596;1.320;2022-12-24T03:23:57;8.60;99.90
27506;DHT22;14939;43.596;1.320;2022-12-24T03:26:24;8.60;99.90
27506;DHT22;14939;43.596;1.320;2022-12-24T03:28:51;8.60;99.90
27506;DHT22;14939;43.596;1.320;2022-12-24T03:31:17;8.60;99.90
27506;DHT22;14939;43.596;1.320;2022-12-24T03:33:44;8.60;99.90
27506;DHT22;14939;43.596;1.320;2022-12-24T03:36:10;8.60;99.90
27506;DHT22;14939;43.596;1.320;2022-12-24T03:38:36;8.60;99.90
27506;DHT22;14939;43.596;1.320;2022-12-24T03:41:02;8.60;99.90
27506;DHT22;14939;43.596;1.320;2022-12-24T03:43:28;8.50;99.90
27506;DHT22;14939;43.596;1.320;2022-12-24T03:45:54;8.50;99.90
27506;DHT22;14939;43.596;1.320;2022-12-24T03:48:20;8.50;99.90
27506;DHT22;14939;43.596;1.320;2022-12-24T03:50:46;8.50;99.90
27506;DHT22;14939;43.596;1.320;2022-12-24T03:53:11;8.50;99.90
27506;DHT22;14939;43.596;1.320;2022-12-24T03:55:37;8.40;99.90
27506;DHT22;14939;43.596;1.320;2022-12-24T03:58:03;8.40;99.90
27506;DHT22;14939;43.596;1.320;2022-12-24T04:00:30;8.40;99.90
27506;DHT22;14939;43.596;1.320;2022-12-24T04:02:55;8.40;99.90
27506;DHT22;14939;43.596;1.320;2022-12-24T04:05:21;8.40;99.90
27506;DHT22;14939;43.596;1.320;2022-12-24T04:07:47;8.40;99.90
27506;DHT22;14939;43.596;1.320;2022-12-24T04:10:14;8.40;99.90
27506;DHT22;14939;43.596;1.320;2022-12-24T04:12:40;8.30;99.90
27506;DHT22;14939;43.596;1.320;2022-12-24T04:15:06;8.30;99.90
27506;DHT22;14939;43.596;1.320;2022-12-24T04:17:32;8.20;99.90
27506;DHT22;14939;43.596;1.320;2022-12-24T04:19:58;8.20;99.90
27506;DHT22;14939;43.596;1.320;2022-12-24T04:22:23;8.20;99.90
27506;DHT22;14939;43.596;1.320;2022-12-24T04:24:49;8.20;99.90
27506;DHT22;14939;43.596;1.320;2022-12-24T04:27:15;8.10;99.90
27506;DHT22;14939;43.596;1.320;2022-12-24T04:29:41;8.10;99.90
27506;DHT22;14939;43.596;1.320;2022-12-24T04:32:07;8.10;99.90
27506;DHT22;14939;43.596;1.320;2022-12-24T04:34:32;8.10;99.90
27506;DHT22;14939;43.596;1.320;2022-12-24T04:36:58;8.10;99.90
27506;DHT22;14939;43.596;1.320;2022-12-24T04:39:24;8.10;99.90
27506;DHT22;14939;43.596;1.320;2022-12-24T04:41:49;8.10;99.90
27506;DHT22;14939;43.596;1.320;2022-12-24T04:44:15;8.00;99.90
27506;DHT22;14939;43.596;1.320;2022-12-24T04:46:41;7.90;99.90
27506;DHT22;14939;43.596;1.320;2022-12-24T04:49:07;7.90;99.90
27506;DHT22;14939;43.596;1.320;2022-12-24T04:51:32;7.80;99.90
27506;DHT22;14939;43.596;1.320;2022-12-24T04:53:59;7.90;99.90
27506;DHT22;14939;43.596;1.320;2022-12-24T04:56:27;7.90;99.90
27506;DHT22;14939;43.596;1.320;2022-12-24T04:58:53;7.90;99.90
27506;DHT22;14939;43.596;1.320;2022-12-24T05:01:25;7.90;99.90
27506;DHT22;14939;43.596;1.320;2022-12-24T05:03:52;7.80;99.90
27506;DHT22;14939;43.596;1.320;2022-12-24T05:06:21;7.80;99.90
27506;DHT22;14939;43.596;1.320;2022-12-24T05:08:47;7.70;99.90
27506;DHT22;14939;43.596;1.320;2022-12-24T05:11:14;7.70;99.90
27506;DHT22;14939;43.596;1.320;2022-12-24T05:13:41;7.60;99.90
27506;DHT22;14939;43.596;1.320;2022-12-24T05:16:08;7.60;99.90
27506;DHT22;14939;43.596;1.320;2022-12-24T05:18:34;7.50;99.90
27506;DHT22;14939;43.596;1.320;2022-12-24T05:20:59;7.50;99.90
27506;DHT22;14939;43.596;1.320;2022-12-24T05:23:25;7.50;99.90
27506;DHT22;14939;43.596;1.320;2022-12-24T05:26:32;7.40;99.90
27506;DHT22;14939;43.596;1.320;2022-12-24T05:28:59;7.40;99.90
27506;DHT22;14939;43.596;1.320;2022-12-24T05:31:27;7.40;99.90
27506;DHT22;14939;43.596;1.320;2022-12-24T05:33:53;7.50;99.90
27506;DHT22;14939;43.596;1.320;2022-12-24T05:36:20;7.50;99.90
27506;DHT22;14939;43.596;1.320;2022-12-24T05:38:47;7.50;99.90
27506;DHT22;14939;43.596;1.320;2022-12-24T05:41:12;7.50;99.90
27506;DHT22;14939;43.596;1.320;2022-12-24T05:43:38;7.50;99.90
27506;DHT22;14939;43.596;1.320;2022-12-24T05:46:07;7.40;99.90
27506;DHT22;14939;43.596;1.320;2022-12-24T05:48:33;7.40;99.90
27506;DHT22;14939;43.596;1.320;2022-12-24T05:51:03;7.40;99.90
27506;DHT22;14939;43.596;1.320;2022-12-24T05:53:30;7.40;99.90
27506;DHT22;14939;43.596;1.320;2022-12-24T05:56:11;7.40;99.90
27506;DHT22;14939;43.596;1.320;2022-12-24T05:58:38;7.40;99.90
27506;DHT22;14939;43.596;1.320;2022-12-24T06:01:05;7.40;99.90
27506;DHT22;14939;43.596;1.320;2022-12-24T06:03:31;7.40;99.90
27506;DHT22;14939;43.596;1.320;2022-12-24T06:06:08;7.40;99.90
27506;DHT22;14939;43.596;1.320;2022-12-24T06:08:35;7.40;99.90
27506;DHT22;14939;43.596;1.320;2022-12-24T06:11:03;7.40;99.90
27506;DHT22;14939;43.596;1.320;2022-12-24T06:13:30;7.40;99.90
27506;DHT22;14939;43.596;1.320;2022-12-24T06:15:57;7.40;99.90
27506;DHT22;14939;43.596;1.320;2022-12-24T06:18:24;7.30;99.90
27506;DHT22;14939;43.596;1.320;2022-12-24T06:20:51;7.40;99.90
27506;DHT22;14939;43.596;1.320;2022-12-24T06:23:17;7.40;99.90
27506;DHT22;14939;43.596;1.320;2022-12-24T06:25:43;7.40;99.90
27506;DHT22;14939;43.596;1.320;2022-12-24T06:28:08;7.40;99.90
27506;DHT22;14939;43.596;1.320;2022-12-24T06:30:34;7.50;99.90
27506;DHT22;14939;43.596;1.320;2022-12-24T06:33:00;7.50;99.90
27506;DHT22;14939;43.596;1.320;2022-12-24T06:35:26;7.50;99.90
27506;DHT22;14939;43.596;1.320;2022-12-24T06:37:51;7.50;99.90
27506;DHT22;14939;43.596;1.320;2022-12-24T06:40:17;7.50;99.90
27506;DHT22;14939;43.596;1.320;2022-12-24T06:42:43;7.50;99.90
27506;DHT22;14939;43.596;1.320;2022-12-24T06:45:09;7.50;99.90
27506;DHT22;14939;43.596;1.320;2022-12-24T06:47:35;7.50;99.90
27506;DHT22;14939;43.596;1.320;2022-12-24T06:50:00;7.50;99.90
27506;DHT22;14939;43.596;1.320;2022-12-24T06:52:26;7.50;99.90
27506;DHT22;14939;43.596;1.320;2022-12-24T06:54:52;7.50;99.90
27506;DHT22;14939;43.596;1.320;2022-12-24T06:57:17;7.50;99.90
27506;DHT22;14939;43.596;1.320;2022-12-24T06:59:43;7.50;99.90
27506;DHT22;14939;43.596;1.320;2022-12-24T07:02:09;7.40;99.90
27506;DHT22;14939;43.596;1.320;2022-12-24T07:04:35;7.40;99.90
27506;DHT22;14939;43.596;1.320;2022-12-24T07:07:00;7.40;99.90
27506;DHT22;14939;43.596;1.320;2022-12-24T07:09:26;7.30;99.90
27506;DHT22;14939;43.596;1.320;2022-12-24T07:11:52;7.30;99.90
27506;DHT22;14939;43.596;1.320;2022-12-24T07:14:17;7.20;99.90
27506;DHT22;14939;43.596;1.320;2022-12-24T07:16:43;7.10;99.90
27506;DHT22;14939;43.596;1.320;2022-12-24T07:19:09;7.10;99.90
27506;DHT22;14939;43.596;1.320;2022-12-24T07:21:35;7.10;99.90
27506;DHT22;14939;43.596;1.320;2022-12-24T07:24:00;7.00;99.90
27506;DHT22;14939;43.596;1.320;2022-12-24T07:26:26;7.00;99.90
27506;DHT22;14939;43.596;1.320;2022-12-24T07:28:52;7.00;99.90
27506;DHT22;14939;43.596;1.320;2022-12-24T07:31:17;7.00;99.90
27506;DHT22;14939;43.596;1.320;2022-12-24T07:33:43;7.00;99.90
27506;DHT22;14939;43.596;1.320;2022-12-24T07:36:19;7.00;99.90
27506;DHT22;14939;43.596;1.320;2022-12-24T07:38:45;7.00;99.90
27506;DHT22;14939;43.596;1.320;2022-12-24T07:41:11;7.00;99.90
27506;DHT22;14939;43.596;1.320;2022-12-24T07:43:37;7.00;99.90
27506;DHT22;14939;43.596;1.320;2022-12-24T07:46:03;7.10;99.90
27506;DHT22;14939;43.596;1.320;2022-12-24T07:48:30;7.10;99.90
27506;DHT22;14939;43.596;1.320;2022-12-24T07:50:56;7.10;99.90
27506;DHT22;14939;43.596;1.320;2022-12-24T07:53:22;7.20;99.90
27506;DHT22;14939;43.596;1.320;2022-12-24T07:55:48;7.20;99.90
27506;DHT22;14939;43.596;1.320;2022-12-24T07:58:14;7.10;99.90
27506;DHT22;14939;43.596;1.320;2022-12-24T08:00:40;7.20;99.90
27506;DHT22;14939;43.596;1.320;2022-12-24T08:03:06;7.20;99.90
27506;DHT22;14939;43.596;1.320;2022-12-24T08:05:35;7.30;99.90
27506;DHT22;14939;43.596;1.320;2022-12-24T08:08:01;7.30;99.90
27506;DHT22;14939;43.596;1.320;2022-12-24T08:10:27;7.30;99.90
27506;DHT22;14939;43.596;1.320;2022-12-24T08:12:52;7.40;99.90
27506;DHT22;14939;43.596;1.320;2022-12-24T08:15:18;7.50;99.90
27506;DHT22;14939;43.596;1.320;2022-12-24T08:17:44;7.50;99.90
27506;DHT22;14939;43.596;1.320;2022-12-24T08:20:10;7.60;99.90
27506;DHT22;14939;43.596;1.320;2022-12-24T08:22:36;7.60;99.90
27506;DHT22;14939;43.596;1.320;2022-12-24T08:25:02;7.60;99.90
27506;DHT22;14939;43.596;1.320;2022-12-24T08:27:28;7.70;99.90
27506;DHT22;14939;43.596;1.320;2022-12-24T08:29:54;7.70;99.90
27506;DHT22;14939;43.596;1.320;2022-12-24T08:32:19;7.80;99.90
27506;DHT22;14939;43.596;1.320;2022-12-24T08:34:45;7.80;99.90
27506;DHT22;14939;43.596;1.320;2022-12-24T08:37:11;7.90;99.90
27506;DHT22;14939;43.596;1.320;2022-12-24T08:39:36;7.90;99.90
27506;DHT22;14939;43.596;1.320;2022-12-24T08:42:03;8.00;99.90
27506;DHT22;14939;43.596;1.320;2022-12-24T08:44:28;8.00;99.90
27506;DHT22;14939;43.596;1.320;2022-12-24T08:46:54;8.10;99.90
27506;DHT22;14939;43.596;1.320;2022-12-24T08:49:20;8.20;99.90
27506;DHT22;14939;43.596;1.320;2022-12-24T08:51:45;8.20;99.90
27506;DHT22;14939;43.596;1.320;2022-12-24T08:54:11;8.30;99.90
27506;DHT22;14939;43.596;1.320;2022-12-24T08:56:37;8.40;99.90
27506;DHT22;14939;43.596;1.320;2022-12-24T08:59:03;8.50;99.90
27506;DHT22;14939;43.596;1.320;2022-12-24T09:01:28;8.60;99.90
27506;DHT22;14939;43.596;1.320;2022-12-24T09:03:54;8.60;99.90
27506;DHT22;14939;43.596;1.320;2022-12-24T09:06:20;8.70;99.90
27506;DHT22;14939;43.596;1.320;2022-12-24T09:08:46;8.70;99.90
27506;DHT22;14939;43.596;1.320;2022-12-24T09:11:14;8.70;99.90
27506;DHT22;14939;43.596;1.320;2022-12-24T09:13:41;8.70;99.90
27506;DHT22;14939;43.596;1.320;2022-12-24T09:16:07;8.80;99.90
27506;DHT22;14939;43.596;1.320;2022-12-24T09:18:33;8.90;99.90
27506;DHT22;14939;43.596;1.320;2022-12-24T09:21:01;9.00;99.90
27506;DHT22;14939;43.596;1.320;2022-12-24T09:23:28;9.20;99.90
27506;DHT22;14939;43.596;1.320;2022-12-24T09:25:54;9.30;99.90
27506;DHT22;14939;43.596;1.320;2022-12-24T09:28:20;9.30;99.90
27506;DHT22;14939;43.596;1.320;2022-12-24T09:31:01;9.40;99.90
27506;DHT22;14939;43.596;1.320;2022-12-24T09:33:29;9.50;99.90
27506;DHT22;14939;43.596;1.320;2022-12-24T09:35:55;9.60;99.90
27506;DHT22;14939;43.596;1.320;2022-12-24T09:38:21;9.70;99.90
27506;DHT22;14939;43.596;1.320;2022-12-24T09:40:48;9.80;99.90
27506;DHT22;14939;43.596;1.320;2022-12-24T09:43:15;9.90;99.90
27506;DHT22;14939;43.596;1.320;2022-12-24T09:45:59;10.00;99.90
27506;DHT22;14939;43.596;1.320;2022-12-24T09:48:29;10.10;99.90
27506;DHT22;14939;43.596;1.320;2022-12-24T09:51:40;10.20;99.90
27506;DHT22;14939;43.596;1.320;2022-12-24T09:56:38;10.30;99.90
27506;DHT22;14939;43.596;1.320;2022-12-24T09:59:08;10.40;99.90
27506;DHT22;14939;43.596;1.320;2022-12-24T10:01:35;10.60;99.90
27506;DHT22;14939;43.596;1.320;2022-12-24T10:04:06;10.70;99.90
27506;DHT22;14939;43.596;1.320;2022-12-24T10:14:45;10.90;99.90
27506;DHT22;14939;43.596;1.320;2022-12-24T10:20:38;11.00;99.90
27506;DHT22;14939;43.596;1.320;2022-12-24T10:26:31;11.10;99.90
27506;DHT22;14939;43.596;1.320;2022-12-24T10:29:18;11.20;99.90
27506;DHT22;14939;43.596;1.320;2022-12-24T10:31:54;11.30;99.90
27506;DHT22;14939;43.596;1.320;2022-12-24T10:34:23;11.40;99.90
27506;DHT22;14939;43.596;1.320;2022-12-24T10:36:52;11.40;99.90
27506;DHT22;14939;43.596;1.320;2022-12-24T10:39:21;11.50;99.90
27506;DHT22;14939;43.596;1.320;2022-12-24T10:41:50;11.60;99.90
27506;DHT22;14939;43.596;1.320;2022-12-24T10:44:20;11.60;99.90
27506;DHT22;14939;43.596;1.320;2022-12-24T10:46:46;11.70;99.90
27506;DHT22;14939;43.596;1.320;2022-12-24T10:49:19;11.80;99.90
27506;DHT22;14939;43.596;1.320;2022-12-24T10:54:22;11.90;99.90
27506;DHT22;14939;43.596;1.320;2022-12-24T10:56:50;12.00;99.90
27506;DHT22;14939;43.596;1.320;2022-12-24T11:02:30;12.10;99.90
27506;DHT22;14939;43.596;1.320;2022-12-24T11:04:58;12.20;99.90
27506;DHT22;14939;43.596;1.320;2022-12-24T11:07:25;12.20;99.90
27506;DHT22;14939;43.596;1.320;2022-12-24T11:09:55;12.30;99.90
27506;DHT22;14939;43.596;1.320;2022-12-24T11:12:23;12.30;99.90
27506;DHT22;14939;43.596;1.320;2022-12-24T11:15:00;12.40;99.90
27506;DHT22;14939;43.596;1.320;2022-12-24T11:17:26;12.40;99.90
27506;DHT22;14939;43.596;1.320;2022-12-24T11:19:52;12.50;99.90
27506;DHT22;14939;43.596;1.320;2022-12-24T11:22:30;12.60;99.90
27506;DHT22;14939;43.596;1.320;2022-12-24T11:25:16;12.70;99.90
27506;DHT22;14939;43.596;1.320;2022-12-24T11:27:44;12.80;99.90
27506;DHT22;14939;43.596;1.320;2022-12-24T11:32:43;12.90;99.90
27506;DHT22;14939;43.596;1.320;2022-12-24T11:35:16;12.90;99.90
27506;DHT22;14939;43.596;1.320;2022-12-24T11:37:43;13.00;99.90
27506;DHT22;14939;43.596;1.320;2022-12-24T11:40:20;13.10;99.90
27506;DHT22;14939;43.596;1.320;2022-12-24T11:42:47;13.20;99.90
27506;DHT22;14939;43.596;1.320;2022-12-24T11:45:23;13.30;99.90
27506;DHT22;14939;43.596;1.320;2022-12-24T11:47:50;13.40;99.90
27506;DHT22;14939;43.596;1.320;2022-12-24T11:50:26;13.50;99.90
27506;DHT22;14939;43.596;1.320;2022-12-24T11:53:16;13.70;99.90
27506;DHT22;14939;43.596;1.320;2022-12-24T12:01:10;14.00;99.90
27506;DHT22;14939;43.596;1.320;2022-12-24T12:03:44;14.10;99.90
27506;DHT22;14939;43.596;1.320;2022-12-24T12:09:23;14.30;99.90
27506;DHT22;14939;43.596;1.320;2022-12-24T12:11:55;14.40;99.90
27506;DHT22;14939;43.596;1.320;2022-12-24T12:14:37;14.40;99.90
27506;DHT22;14939;43.596;1.320;2022-12-24T12:17:29;14.40;99.90
27506;DHT22;14939;43.596;1.320;2022-12-24T12:25:37;14.70;99.90
27506;DHT22;14939;43.596;1.320;2022-12-24T12:28:22;14.80;99.90
27506;DHT22;14939;43.596;1.320;2022-12-24T12:31:27;14.90;99.90
27506;DHT22;14939;43.596;1.320;2022-12-24T12:34:16;14.90;99.90
27506;DHT22;14939;43.596;1.320;2022-12-24T12:37:04;15.00;99.90
27506;DHT22;14939;43.596;1.320;2022-12-24T12:39:31;15.00;99.90
27506;DHT22;14939;43.596;1.320;2022-12-24T13:01:21;15.40;99.90
27506;DHT22;14939;43.596;1.320;2022-12-24T13:09:52;15.40;99.90
27506;DHT22;14939;43.596;1.320;2022-12-24T13:15:31;15.50;99.90
27506;DHT22;14939;43.596;1.320;2022-12-24T13:20:30;15.60;99.90
27506;DHT22;14939;43.596;1.320;2022-12-24T13:22:59;15.70;99.90
27506;DHT22;14939;43.596;1.320;2022-12-24T13:25:36;15.80;99.90
27506;DHT22;14939;43.596;1.320;2022-12-24T13:30:52;15.80;99.90
27506;DHT22;14939;43.596;1.320;2022-12-24T13:36:06;15.90;99.90
27506;DHT22;14939;43.596;1.320;2022-12-24T13:38:45;15.90;99.90
27506;DHT22;14939;43.596;1.320;2022-12-24T13:47:01;15.90;99.90
27506;DHT22;14939;43.596;1.320;2022-12-24T13:49:42;16.00;99.90
27506;DHT22;14939;43.596;1.320;2022-12-24T13:54:44;16.10;99.90
27506;DHT22;14939;43.596;1.320;2022-12-24T14:00:26;16.20;99.90
27506;DHT22;14939;43.596;1.320;2022-12-24T14:03:13;16.20;99.90
27506;DHT22;14939;43.596;1.320;2022-12-24T14:08:32;16.20;99.90
27506;DHT22;14939;43.596;1.320;2022-12-24T14:11:12;16.20;99.90
27506;DHT22;14939;43.596;1.320;2022-12-24T14:16:27;16.20;99.90
27506;DHT22;14939;43.596;1.320;2022-12-24T14:22:02;16.30;99.90
27506;DHT22;14939;43.596;1.320;2022-12-24T14:24:39;16.30;99.90
27506;DHT22;14939;43.596;1.320;2022-12-24T14:27:38;16.40;99.90
27506;DHT22;14939;43.596;1.320;2022-12-24T14:30:21;16.40;99.90
27506;DHT22;14939;43.596;1.320;2022-12-24T14:32:48;16.30;99.90
27506;DHT22;14939;43.596;1.320;2022-12-24T14:35:15;16.30;99.90
27506;DHT22;14939;43.596;1.320;2022-12-24T14:38:07;16.40;99.90
27506;DHT22;14939;43.596;1.320;2022-12-24T14:43:50;16.30;99.90
27506;DHT22;14939;43.596;1.320;2022-12-24T14:46:47;16.30;99.90
27506;DHT22;14939;43.596;1.320;2022-12-24T14:52:47;16.20;99.90
27506;DHT22;14939;43.596;1.320;2022-12-24T14:55:29;16.20;99.90
27506;DHT22;14939;43.596;1.320;2022-12-24T14:58:27;16.20;99.90
27506;DHT22;14939;43.596;1.320;2022-12-24T15:00:59;16.30;99.90
27506;DHT22;14939;43.596;1.320;2022-12-24T15:03:28;16.20;99.90
27506;DHT22;14939;43.596;1.320;2022-12-24T15:06:05;16.20;99.90
27506;DHT22;14939;43.596;1.320;2022-12-24T15:08:35;16.10;99.90
27506;DHT22;14939;43.596;1.320;2022-12-24T15:11:05;16.00;99.90
27506;DHT22;14939;43.596;1.320;2022-12-24T15:13:41;16.00;99.90
27506;DHT22;14939;43.596;1.320;2022-12-24T15:16:12;16.00;99.90
27506;DHT22;14939;43.596;1.320;2022-12-24T15:18:45;16.00;99.90
27506;DHT22;14939;43.596;1.320;2022-12-24T15:21:46;16.00;99.90
27506;DHT22;14939;43.596;1.320;2022-12-24T15:24:31;16.00;99.90
27506;DHT22;14939;43.596;1.320;2022-12-24T15:26:58;16.00;99.90
27506;DHT22;14939;43.596;1.320;2022-12-24T15:29:40;16.00;99.90
27506;DHT22;14939;43.596;1.320;2022-12-24T15:32:14;15.90;99.90
27506;DHT22;14939;43.596;1.320;2022-12-24T15:34:53;15.80;99.90
27506;DHT22;14939;43.596;1.320;2022-12-24T15:37:33;15.80;99.90
27506;DHT22;14939;43.596;1.320;2022-12-24T15:42:34;15.50;99.90
27506;DHT22;14939;43.596;1.320;2022-12-24T15:45:28;15.50;99.90
27506;DHT22;14939;43.596;1.320;2022-12-24T15:48:06;15.50;99.90
27506;DHT22;14939;43.596;1.320;2022-12-24T15:50:35;15.50;99.90
27506;DHT22;14939;43.596;1.320;2022-12-24T15:53:04;15.40;99.90
27506;DHT22;14939;43.596;1.320;2022-12-24T15:55:40;15.30;99.90
27506;DHT22;14939;43.596;1.320;2022-12-24T15:58:25;15.20;99.90
27506;DHT22;14939;43.596;1.320;2022-12-24T16:03:39;15.10;99.90
27506;DHT22;14939;43.596;1.320;2022-12-24T16:06:06;15.00;99.90
27506;DHT22;14939;43.596;1.320;2022-12-24T16:08:34;15.00;99.90
27506;DHT22;14939;43.596;1.320;2022-12-24T16:16:18;14.70;99.90
27506;DHT22;14939;43.596;1.320;2022-12-24T16:21:23;14.30;99.90
27506;DHT22;14939;43.596;1.320;2022-12-24T16:23:52;14.20;99.90
27506;DHT22;14939;43.596;1.320;2022-12-24T16:26:19;14.00;99.90
27506;DHT22;14939;43.596;1.320;2022-12-24T16:28:44;13.90;99.90
27506;DHT22;14939;43.596;1.320;2022-12-24T16:31:18;13.80;99.90
27506;DHT22;14939;43.596;1.320;2022-12-24T16:33:54;13.80;99.90
27506;DHT22;14939;43.596;1.320;2022-12-24T16:36:20;13.60;99.90
27506;DHT22;14939;43.596;1.320;2022-12-24T16:38:46;13.40;99.90
27506;DHT22;14939;43.596;1.320;2022-12-24T16:41:30;13.30;99.90
27506;DHT22;14939;43.596;1.320;2022-12-24T16:44:15;13.30;99.90
27506;DHT22;14939;43.596;1.320;2022-12-24T16:46:41;13.20;99.90
27506;DHT22;14939;43.596;1.320;2022-12-24T16:49:15;13.10;99.90
27506;DHT22;14939;43.596;1.320;2022-12-24T16:51:41;13.00;99.90
27506;DHT22;14939;43.596;1.320;2022-12-24T16:54:10;13.00;99.90
27506;DHT22;14939;43.596;1.320;2022-12-24T16:56:37;12.90;99.90
27506;DHT22;14939;43.596;1.320;2022-12-24T16:59:03;12.90;99.90
27506;DHT22;14939;43.596;1.320;2022-12-24T17:01:29;12.80;99.90
27506;DHT22;14939;43.596;1.320;2022-12-24T17:03:54;12.70;99.90
27506;DHT22;14939;43.596;1.320;2022-12-24T17:06:20;12.60;99.90
27506;DHT22;14939;43.596;1.320;2022-12-24T17:08:47;12.70;99.90
27506;DHT22;14939;43.596;1.320;2022-12-24T17:11:13;12.70;99.90
27506;DHT22;14939;43.596;1.320;2022-12-24T17:13:39;12.60;99.90
27506;DHT22;14939;43.596;1.320;2022-12-24T17:16:05;12.60;99.90
27506;DHT22;14939;43.596;1.320;2022-12-24T17:18:31;12.60;99.90
27506;DHT22;14939;43.596;1.320;2022-12-24T17:21:01;12.60;99.90
27506;DHT22;14939;43.596;1.320;2022-12-24T17:23:28;12.50;99.90
27506;DHT22;14939;43.596;1.320;2022-12-24T17:25:54;12.50;99.90
27506;DHT22;14939;43.596;1.320;2022-12-24T17:28:20;12.30;99.90
27506;DHT22;14939;43.596;1.320;2022-12-24T17:30:46;12.20;99.90
27506;DHT22;14939;43.596;1.320;2022-12-24T17:33:11;12.10;99.90
27506;DHT22;14939;43.596;1.320;2022-12-24T17:35:41;12.10;99.90
27506;DHT22;14939;43.596;1.320;2022-12-24T17:38:07;12.00;99.90
27506;DHT22;14939;43.596;1.320;2022-12-24T17:40:33;12.20;99.90
27506;DHT22;14939;43.596;1.320;2022-12-24T17:42:59;12.20;99.90
27506;DHT22;14939;43.596;1.320;2022-12-24T17:45:25;12.20;99.90
27506;DHT22;14939;43.596;1.320;2022-12-24T17:47:51;12.20;99.90
27506;DHT22;14939;43.596;1.320;2022-12-24T17:50:17;12.00;99.90
27506;DHT22;14939;43.596;1.320;2022-12-24T17:52:43;11.90;99.90
27506;DHT22;14939;43.596;1.320;2022-12-24T17:55:09;11.80;99.90
27506;DHT22;14939;43.596;1.320;2022-12-24T17:57:35;11.80;99.90
27506;DHT22;14939;43.596;1.320;2022-12-24T18:00:01;11.70;99.90
27506;DHT22;14939;43.596;1.320;2022-12-24T18:02:27;11.70;99.90
27506;DHT22;14939;43.596;1.320;2022-12-24T18:04:52;11.60;99.90
27506;DHT22;14939;43.596;1.320;2022-12-24T18:07:18;11.70;99.90
27506;DHT22;14939;43.596;1.320;2022-12-24T18:09:44;11.60;99.90
27506;DHT22;14939;43.596;1.320;2022-12-24T18:12:11;11.50;99.90